Rotan, Texas
Current Conditions -  °F | °C
As of 8:35 PM on Wednesday 22 Oct 2014 (Local Time) from KSWW Reporting Station
Broken Clouds Broken Clouds  
Wind Chill: 63°   Ceiling: 6000
Heat Index: 63°   Visibility: 10mi
Dew Point: 59°   Wind: 7mph
Humidity: 89%   Direction: 110°ESE
Pressure: 30.15"   Gusts: NA
Location:  32.85°N, 100.47°W
Report Text: KSWW 230135Z AUTO 11006KT 10SM BKN060 BKN080 17/15 A3015 RMK AO2 T01710152
Loading
Personal Weather Stations






























Interactive Weather Map
Tropical Storm Tracking
New forecast layout! Learn more

10-Day Weather Forecast

Advertisements
Track Severe Weather on mobile